sensor_id;sensor_type;location;lat;lon;timestamp;P1;durP1;ratioP1;P2;durP2;ratioP2
64244;SDS011;50584;29.058;-110.966;2023-11-19T00:00:37;0.95;;;0.70;;
64244;SDS011;50584;29.058;-110.966;2023-11-19T00:03:02;1.98;;;0.90;;
64244;SDS011;50584;29.058;-110.966;2023-11-19T00:05:28;1.42;;;0.60;;
64244;SDS011;50584;29.058;-110.966;2023-11-19T00:07:54;1.63;;;0.68;;
64244;SDS011;50584;29.058;-110.966;2023-11-19T00:10:20;0.50;;;0.50;;
64244;SDS011;50584;29.058;-110.966;2023-11-19T00:12:47;12.63;;;0.98;;
64244;SDS011;50584;29.058;-110.966;2023-11-19T00:15:14;0.68;;;0.68;;
64244;SDS011;50584;29.058;-110.966;2023-11-19T00:17:41;2.75;;;0.80;;
64244;SDS011;50584;29.058;-110.966;2023-11-19T00:20:10;4.50;;;0.85;;
64244;SDS011;50584;29.058;-110.966;2023-11-19T00:22:36;5.40;;;0.95;;
64244;SDS011;50584;29.058;-110.966;2023-11-19T00:25:02;6.97;;;1.10;;
64244;SDS011;50584;29.058;-110.966;2023-11-19T00:27:29;4.68;;;0.98;;
64244;SDS011;50584;29.058;-110.966;2023-11-19T00:29:54;1.48;;;0.63;;
64244;SDS011;50584;29.058;-110.966;2023-11-19T00:32:20;3.60;;;0.60;;
64244;SDS011;50584;29.058;-110.966;2023-11-19T00:34:46;3.42;;;0.80;;
64244;SDS011;50584;29.058;-110.966;2023-11-19T00:37:13;5.03;;;1.05;;
64244;SDS011;50584;29.058;-110.966;2023-11-19T00:39:39;5.72;;;0.65;;
64244;SDS011;50584;29.058;-110.966;2023-11-19T00:42:05;0.50;;;0.50;;
64244;SDS011;50584;29.058;-110.966;2023-11-19T00:44:31;4.18;;;0.77;;
64244;SDS011;50584;29.058;-110.966;2023-11-19T00:46:57;5.15;;;0.45;;
64244;SDS011;50584;29.058;-110.966;2023-11-19T00:49:23;1.90;;;0.75;;
64244;SDS011;50584;29.058;-110.966;2023-11-19T00:51:49;2.45;;;0.50;;
64244;SDS011;50584;29.058;-110.966;2023-11-19T00:54:14;0.95;;;0.60;;
64244;SDS011;50584;29.058;-110.966;2023-11-19T00:56:40;3.22;;;0.70;;
64244;SDS011;50584;29.058;-110.966;2023-11-19T00:59:06;10.57;;;1.10;;
64244;SDS011;50584;29.058;-110.966;2023-11-19T01:01:32;17.48;;;1.00;;
64244;SDS011;50584;29.058;-110.966;2023-11-19T01:03:58;2.50;;;0.40;;
64244;SDS011;50584;29.058;-110.966;2023-11-19T01:06:27;0.75;;;0.40;;
64244;SDS011;50584;29.058;-110.966;2023-11-19T01:08:54;1.25;;;0.70;;
64244;SDS011;50584;29.058;-110.966;2023-11-19T01:11:20;0.50;;;0.50;;
64244;SDS011;50584;29.058;-110.966;2023-11-19T01:13:46;0.50;;;0.50;;
64244;SDS011;50584;29.058;-110.966;2023-11-19T01:16:12;0.55;;;0.55;;
64244;SDS011;50584;29.058;-110.966;2023-11-19T01:18:38;0.43;;;0.43;;
64244;SDS011;50584;29.058;-110.966;2023-11-19T01:21:04;2.35;;;0.73;;
64244;SDS011;50584;29.058;-110.966;2023-11-19T01:23:30;4.07;;;0.70;;
64244;SDS011;50584;29.058;-110.966;2023-11-19T01:25:56;1.50;;;0.70;;
64244;SDS011;50584;29.058;-110.966;2023-11-19T01:28:22;1.65;;;0.70;;
64244;SDS011;50584;29.058;-110.966;2023-11-19T01:30:50;1.40;;;0.73;;
64244;SDS011;50584;29.058;-110.966;2023-11-19T01:33:16;2.22;;;0.60;;
64244;SDS011;50584;29.058;-110.966;2023-11-19T01:35:42;3.33;;;0.68;;
64244;SDS011;50584;29.058;-110.966;2023-11-19T01:38:07;1.52;;;0.50;;
64244;SDS011;50584;29.058;-110.966;2023-11-19T01:40:36;0.60;;;0.60;;
64244;SDS011;50584;29.058;-110.966;2023-11-19T01:43:02;1.33;;;0.60;;
64244;SDS011;50584;29.058;-110.966;2023-11-19T01:45:29;1.75;;;0.90;;
64244;SDS011;50584;29.058;-110.966;2023-11-19T01:47:58;1.95;;;0.65;;
64244;SDS011;50584;29.058;-110.966;2023-11-19T01:50:25;0.70;;;0.70;;
64244;SDS011;50584;29.058;-110.966;2023-11-19T01:52:54;3.15;;;0.60;;
64244;SDS011;50584;29.058;-110.966;2023-11-19T01:55:23;0.50;;;0.50;;
64244;SDS011;50584;29.058;-110.966;2023-11-19T01:57:49;4.60;;;0.57;;
64244;SDS011;50584;29.058;-110.966;2023-11-19T02:00:16;0.50;;;0.50;;
64244;SDS011;50584;29.058;-110.966;2023-11-19T02:02:43;0.68;;;0.50;;
64244;SDS011;50584;29.058;-110.966;2023-11-19T02:05:12;0.30;;;0.30;;
64244;SDS011;50584;29.058;-110.966;2023-11-19T02:07:38;2.13;;;0.40;;
64244;SDS011;50584;29.058;-110.966;2023-11-19T02:10:04;0.70;;;0.60;;
64244;SDS011;50584;29.058;-110.966;2023-11-19T02:12:31;0.50;;;0.50;;
64244;SDS011;50584;29.058;-110.966;2023-11-19T02:15:01;1.35;;;0.40;;
64244;SDS011;50584;29.058;-110.966;2023-11-19T02:17:28;4.68;;;0.52;;
64244;SDS011;50584;29.058;-110.966;2023-11-19T02:19:54;0.50;;;0.50;;
64244;SDS011;50584;29.058;-110.966;2023-11-19T02:22:20;1.38;;;0.38;;
64244;SDS011;50584;29.058;-110.966;2023-11-19T02:24:46;0.80;;;0.35;;
64244;SDS011;50584;29.058;-110.966;2023-11-19T02:27:55;0.60;;;0.32;;
64244;SDS011;50584;29.058;-110.966;2023-11-19T02:30:01;0.40;;;0.40;;
64244;SDS011;50584;29.058;-110.966;2023-11-19T02:32:31;0.43;;;0.43;;
64244;SDS011;50584;29.058;-110.966;2023-11-19T02:34:57;0.70;;;0.50;;
64244;SDS011;50584;29.058;-110.966;2023-11-19T02:37:22;1.45;;;0.68;;
64244;SDS011;50584;29.058;-110.966;2023-11-19T02:39:48;5.50;;;0.60;;
64244;SDS011;50584;29.058;-110.966;2023-11-19T02:42:14;0.30;;;0.30;;
64244;SDS011;50584;29.058;-110.966;2023-11-19T02:44:43;0.50;;;0.50;;
64244;SDS011;50584;29.058;-110.966;2023-11-19T02:47:09;1.65;;;0.40;;
64244;SDS011;50584;29.058;-110.966;2023-11-19T02:49:34;0.45;;;0.40;;
64244;SDS011;50584;29.058;-110.966;2023-11-19T02:52:01;0.50;;;0.50;;
64244;SDS011;50584;29.058;-110.966;2023-11-19T02:54:27;1.23;;;0.60;;
64244;SDS011;50584;29.058;-110.966;2023-11-19T02:56:52;1.95;;;0.88;;
64244;SDS011;50584;29.058;-110.966;2023-11-19T02:59:24;7.82;;;0.70;;
64244;SDS011;50584;29.058;-110.966;2023-11-19T03:01:53;0.70;;;0.60;;
64244;SDS011;50584;29.058;-110.966;2023-11-19T03:04:20;0.73;;;0.70;;
64244;SDS011;50584;29.058;-110.966;2023-11-19T03:06:46;2.67;;;0.50;;
64244;SDS011;50584;29.058;-110.966;2023-11-19T03:09:12;0.40;;;0.40;;
64244;SDS011;50584;29.058;-110.966;2023-11-19T03:11:38;0.95;;;0.70;;
64244;SDS011;50584;29.058;-110.966;2023-11-19T03:14:04;0.70;;;0.70;;
64244;SDS011;50584;29.058;-110.966;2023-11-19T03:16:29;0.60;;;0.60;;
64244;SDS011;50584;29.058;-110.966;2023-11-19T03:18:55;1.95;;;0.90;;
64244;SDS011;50584;29.058;-110.966;2023-11-19T03:21:28;1.38;;;0.70;;
64244;SDS011;50584;29.058;-110.966;2023-11-19T03:23:54;2.40;;;0.63;;
64244;SDS011;50584;29.058;-110.966;2023-11-19T03:26:20;2.25;;;0.80;;
64244;SDS011;50584;29.058;-110.966;2023-11-19T03:28:47;1.00;;;1.00;;
64244;SDS011;50584;29.058;-110.966;2023-11-19T03:31:13;5.53;;;1.17;;
64244;SDS011;50584;29.058;-110.966;2023-11-19T03:33:39;0.88;;;0.70;;
64244;SDS011;50584;29.058;-110.966;2023-11-19T03:36:05;0.60;;;0.60;;
64244;SDS011;50584;29.058;-110.966;2023-11-19T03:38:31;1.00;;;1.00;;
64244;SDS011;50584;29.058;-110.966;2023-11-19T03:40:56;1.05;;;0.93;;
64244;SDS011;50584;29.058;-110.966;2023-11-19T03:43:22;0.70;;;0.63;;
64244;SDS011;50584;29.058;-110.966;2023-11-19T03:45:48;0.60;;;0.60;;
64244;SDS011;50584;29.058;-110.966;2023-11-19T03:48:14;1.52;;;0.75;;
64244;SDS011;50584;29.058;-110.966;2023-11-19T03:50:44;0.60;;;0.60;;
64244;SDS011;50584;29.058;-110.966;2023-11-19T03:53:11;2.30;;;0.93;;
64244;SDS011;50584;29.058;-110.966;2023-11-19T03:55:37;3.20;;;0.70;;
64244;SDS011;50584;29.058;-110.966;2023-11-19T03:58:02;2.28;;;0.70;;
64244;SDS011;50584;29.058;-110.966;2023-11-19T04:00:28;1.10;;;0.50;;
64244;SDS011;50584;29.058;-110.966;2023-11-19T04:02:54;0.60;;;0.60;;
64244;SDS011;50584;29.058;-110.966;2023-11-19T04:05:20;1.25;;;0.70;;
64244;SDS011;50584;29.058;-110.966;2023-11-19T04:07:46;0.60;;;0.60;;
64244;SDS011;50584;29.058;-110.966;2023-11-19T04:10:11;0.68;;;0.68;;
64244;SDS011;50584;29.058;-110.966;2023-11-19T04:12:37;0.50;;;0.50;;
64244;SDS011;50584;29.058;-110.966;2023-11-19T04:15:03;0.47;;;0.47;;
64244;SDS011;50584;29.058;-110.966;2023-11-19T04:17:29;3.40;;;0.60;;
64244;SDS011;50584;29.058;-110.966;2023-11-19T04:19:55;0.50;;;0.50;;
64244;SDS011;50584;29.058;-110.966;2023-11-19T04:22:21;2.50;;;0.57;;
64244;SDS011;50584;29.058;-110.966;2023-11-19T04:24:47;0.63;;;0.63;;
64244;SDS011;50584;29.058;-110.966;2023-11-19T04:27:13;2.92;;;0.50;;
64244;SDS011;50584;29.058;-110.966;2023-11-19T04:29:39;0.52;;;0.52;;
64244;SDS011;50584;29.058;-110.966;2023-11-19T04:32:05;0.60;;;0.60;;
64244;SDS011;50584;29.058;-110.966;2023-11-19T04:34:31;0.70;;;0.70;;
64244;SDS011;50584;29.058;-110.966;2023-11-19T04:36:56;2.00;;;0.60;;
64244;SDS011;50584;29.058;-110.966;2023-11-19T04:39:22;5.72;;;0.80;;
64244;SDS011;50584;29.058;-110.966;2023-11-19T04:41:49;2.67;;;1.00;;
64244;SDS011;50584;29.058;-110.966;2023-11-19T04:44:15;0.63;;;0.63;;
64244;SDS011;50584;29.058;-110.966;2023-11-19T04:46:41;3.65;;;0.68;;
64244;SDS011;50584;29.058;-110.966;2023-11-19T04:49:09;3.10;;;0.70;;
64244;SDS011;50584;29.058;-110.966;2023-11-19T04:51:42;6.13;;;1.15;;
64244;SDS011;50584;29.058;-110.966;2023-11-19T04:54:09;2.35;;;0.93;;
64244;SDS011;50584;29.058;-110.966;2023-11-19T04:56:35;2.72;;;0.90;;
64244;SDS011;50584;29.058;-110.966;2023-11-19T04:59:04;1.10;;;0.80;;
64244;SDS011;50584;29.058;-110.966;2023-11-19T05:01:31;6.07;;;5.47;;
64244;SDS011;50584;29.058;-110.966;2023-11-19T05:03:57;5.85;;;1.20;;
64244;SDS011;50584;29.058;-110.966;2023-11-19T05:06:26;4.43;;;1.00;;
64244;SDS011;50584;29.058;-110.966;2023-11-19T05:08:53;1.00;;;0.95;;
64244;SDS011;50584;29.058;-110.966;2023-11-19T05:11:19;3.83;;;0.98;;
64244;SDS011;50584;29.058;-110.966;2023-11-19T05:13:45;1.33;;;1.10;;
64244;SDS011;50584;29.058;-110.966;2023-11-19T05:16:11;9.20;;;1.20;;
64244;SDS011;50584;29.058;-110.966;2023-11-19T05:18:42;2.97;;;1.10;;
64244;SDS011;50584;29.058;-110.966;2023-11-19T05:21:08;5.38;;;1.02;;
64244;SDS011;50584;29.058;-110.966;2023-11-19T05:23:34;1.13;;;0.82;;
64244;SDS011;50584;29.058;-110.966;2023-11-19T05:26:02;2.08;;;0.98;;
64244;SDS011;50584;29.058;-110.966;2023-11-19T05:28:28;3.50;;;1.05;;
64244;SDS011;50584;29.058;-110.966;2023-11-19T05:30:54;1.77;;;0.98;;
64244;SDS011;50584;29.058;-110.966;2023-11-19T05:33:20;4.80;;;1.10;;
64244;SDS011;50584;29.058;-110.966;2023-11-19T05:35:46;1.10;;;1.00;;
64244;SDS011;50584;29.058;-110.966;2023-11-19T05:38:12;2.20;;;1.05;;
64244;SDS011;50584;29.058;-110.966;2023-11-19T05:40:38;2.17;;;1.00;;
64244;SDS011;50584;29.058;-110.966;2023-11-19T05:43:04;1.65;;;0.98;;
64244;SDS011;50584;29.058;-110.966;2023-11-19T05:45:30;5.38;;;1.20;;
64244;SDS011;50584;29.058;-110.966;2023-11-19T05:47:57;48.05;;;3.67;;
64244;SDS011;50584;29.058;-110.966;2023-11-19T05:50:23;14.48;;;1.30;;
64244;SDS011;50584;29.058;-110.966;2023-11-19T05:52:49;7.65;;;1.17;;
64244;SDS011;50584;29.058;-110.966;2023-11-19T05:55:15;17.25;;;2.42;;
64244;SDS011;50584;29.058;-110.966;2023-11-19T05:57:41;7.65;;;1.45;;
64244;SDS011;50584;29.058;-110.966;2023-11-19T06:00:07;5.78;;;1.55;;
64244;SDS011;50584;29.058;-110.966;2023-11-19T06:02:34;2.85;;;1.10;;
64244;SDS011;50584;29.058;-110.966;2023-11-19T06:05:00;0.80;;;0.80;;
64244;SDS011;50584;29.058;-110.966;2023-11-19T06:07:26;1.00;;;0.90;;
64244;SDS011;50584;29.058;-110.966;2023-11-19T06:09:52;1.10;;;1.02;;
64244;SDS011;50584;29.058;-110.966;2023-11-19T06:12:17;1.75;;;1.20;;
64244;SDS011;50584;29.058;-110.966;2023-11-19T06:14:43;0.88;;;0.80;;
64244;SDS011;50584;29.058;-110.966;2023-11-19T06:17:09;0.85;;;0.85;;
64244;SDS011;50584;29.058;-110.966;2023-11-19T06:19:36;1.42;;;1.10;;
64244;SDS011;50584;29.058;-110.966;2023-11-19T06:22:03;6.47;;;1.10;;
64244;SDS011;50584;29.058;-110.966;2023-11-19T06:24:29;0.77;;;0.77;;
64244;SDS011;50584;29.058;-110.966;2023-11-19T06:26:55;0.70;;;0.70;;
64244;SDS011;50584;29.058;-110.966;2023-11-19T06:29:21;3.00;;;0.82;;
64244;SDS011;50584;29.058;-110.966;2023-11-19T06:31:46;0.70;;;0.70;;
64244;SDS011;50584;29.058;-110.966;2023-11-19T06:34:15;2.17;;;0.90;;
64244;SDS011;50584;29.058;-110.966;2023-11-19T06:36:41;4.63;;;1.40;;
64244;SDS011;50584;29.058;-110.966;2023-11-19T06:39:09;7.47;;;0.85;;
64244;SDS011;50584;29.058;-110.966;2023-11-19T06:41:36;1.55;;;0.90;;
64244;SDS011;50584;29.058;-110.966;2023-11-19T06:44:03;0.60;;;0.60;;
64244;SDS011;50584;29.058;-110.966;2023-11-19T06:46:30;1.65;;;0.65;;
64244;SDS011;50584;29.058;-110.966;2023-11-19T06:48:56;1.65;;;0.70;;
64244;SDS011;50584;29.058;-110.966;2023-11-19T06:51:22;1.90;;;0.90;;
64244;SDS011;50584;29.058;-110.966;2023-11-19T06:53:49;2.85;;;0.60;;
64244;SDS011;50584;29.058;-110.966;2023-11-19T06:56:22;2.90;;;0.60;;
64244;SDS011;50584;29.058;-110.966;2023-11-19T06:58:48;0.80;;;0.80;;
64244;SDS011;50584;29.058;-110.966;2023-11-19T07:01:14;0.77;;;0.70;;
64244;SDS011;50584;29.058;-110.966;2023-11-19T07:03:40;3.30;;;0.70;;
64244;SDS011;50584;29.058;-110.966;2023-11-19T07:06:06;1.55;;;0.80;;
64244;SDS011;50584;29.058;-110.966;2023-11-19T07:08:32;0.80;;;0.80;;
64244;SDS011;50584;29.058;-110.966;2023-11-19T07:10:58;4.15;;;0.82;;
64244;SDS011;50584;29.058;-110.966;2023-11-19T07:13:23;0.88;;;0.85;;
64244;SDS011;50584;29.058;-110.966;2023-11-19T07:15:49;1.55;;;0.90;;
64244;SDS011;50584;29.058;-110.966;2023-11-19T07:18:15;3.85;;;2.15;;
64244;SDS011;50584;29.058;-110.966;2023-11-19T07:20:41;3.38;;;0.90;;
64244;SDS011;50584;29.058;-110.966;2023-11-19T07:23:07;2.97;;;1.13;;
64244;SDS011;50584;29.058;-110.966;2023-11-19T07:25:34;3.88;;;0.85;;
64244;SDS011;50584;29.058;-110.966;2023-11-19T07:28:01;1.20;;;1.10;;
64244;SDS011;50584;29.058;-110.966;2023-11-19T07:30:30;1.90;;;1.10;;
64244;SDS011;50584;29.058;-110.966;2023-11-19T07:32:55;3.25;;;1.27;;
64244;SDS011;50584;29.058;-110.966;2023-11-19T07:35:21;1.52;;;1.13;;
64244;SDS011;50584;29.058;-110.966;2023-11-19T07:37:47;1.98;;;1.25;;
64244;SDS011;50584;29.058;-110.966;2023-11-19T07:40:13;2.67;;;1.20;;
64244;SDS011;50584;29.058;-110.966;2023-11-19T07:42:39;4.13;;;1.00;;
64244;SDS011;50584;29.058;-110.966;2023-11-19T07:45:06;3.13;;;1.00;;
64244;SDS011;50584;29.058;-110.966;2023-11-19T07:47:32;1.33;;;1.00;;
64244;SDS011;50584;29.058;-110.966;2023-11-19T07:49:58;1.00;;;1.00;;
64244;SDS011;50584;29.058;-110.966;2023-11-19T07:52:24;1.98;;;1.25;;
64244;SDS011;50584;29.058;-110.966;2023-11-19T07:54:49;4.32;;;1.90;;
64244;SDS011;50584;29.058;-110.966;2023-11-19T07:57:15;4.95;;;1.80;;
64244;SDS011;50584;29.058;-110.966;2023-11-19T07:59:41;2.13;;;1.90;;
64244;SDS011;50584;29.058;-110.966;2023-11-19T08:02:07;5.70;;;2.17;;
64244;SDS011;50584;29.058;-110.966;2023-11-19T08:04:32;8.43;;;3.17;;
64244;SDS011;50584;29.058;-110.966;2023-11-19T08:06:58;5.00;;;2.50;;
64244;SDS011;50584;29.058;-110.966;2023-11-19T08:09:24;9.55;;;2.08;;
64244;SDS011;50584;29.058;-110.966;2023-11-19T08:11:50;4.88;;;1.70;;
64244;SDS011;50584;29.058;-110.966;2023-11-19T08:14:16;5.22;;;1.80;;
64244;SDS011;50584;29.058;-110.966;2023-11-19T08:16:42;2.10;;;1.50;;
64244;SDS011;50584;29.058;-110.966;2023-11-19T08:19:07;3.15;;;1.45;;
64244;SDS011;50584;29.058;-110.966;2023-11-19T08:21:33;4.53;;;1.60;;
64244;SDS011;50584;29.058;-110.966;2023-11-19T08:23:59;2.22;;;1.30;;
64244;SDS011;50584;29.058;-110.966;2023-11-19T08:26:25;1.48;;;1.30;;
64244;SDS011;50584;29.058;-110.966;2023-11-19T08:28:51;1.20;;;1.20;;
64244;SDS011;50584;29.058;-110.966;2023-11-19T08:31:17;1.83;;;1.15;;
64244;SDS011;50584;29.058;-110.966;2023-11-19T08:33:43;1.10;;;1.08;;
64244;SDS011;50584;29.058;-110.966;2023-11-19T08:36:09;1.80;;;1.10;;
64244;SDS011;50584;29.058;-110.966;2023-11-19T08:38:40;1.88;;;1.30;;
64244;SDS011;50584;29.058;-110.966;2023-11-19T08:41:07;4.05;;;1.40;;
64244;SDS011;50584;29.058;-110.966;2023-11-19T08:43:33;2.08;;;1.40;;
64244;SDS011;50584;29.058;-110.966;2023-11-19T08:45:58;3.10;;;1.40;;
64244;SDS011;50584;29.058;-110.966;2023-11-19T08:48:24;3.15;;;1.05;;
64244;SDS011;50584;29.058;-110.966;2023-11-19T08:50:51;2.55;;;1.48;;
64244;SDS011;50584;29.058;-110.966;2023-11-19T08:53:17;2.42;;;1.45;;
64244;SDS011;50584;29.058;-110.966;2023-11-19T08:55:43;1.38;;;1.20;;
64244;SDS011;50584;29.058;-110.966;2023-11-19T08:58:09;2.10;;;1.20;;
64244;SDS011;50584;29.058;-110.966;2023-11-19T09:00:34;2.03;;;1.52;;
64244;SDS011;50584;29.058;-110.966;2023-11-19T09:03:00;3.83;;;1.42;;
64244;SDS011;50584;29.058;-110.966;2023-11-19T09:05:26;1.70;;;1.38;;
64244;SDS011;50584;29.058;-110.966;2023-11-19T09:07:52;6.22;;;1.52;;
64244;SDS011;50584;29.058;-110.966;2023-11-19T09:10:17;2.10;;;1.50;;
64244;SDS011;50584;29.058;-110.966;2023-11-19T09:12:43;2.40;;;1.08;;
64244;SDS011;50584;29.058;-110.966;2023-11-19T09:15:09;3.38;;;1.45;;
64244;SDS011;50584;29.058;-110.966;2023-11-19T09:17:36;2.42;;;1.20;;
64244;SDS011;50584;29.058;-110.966;2023-11-19T09:20:01;6.32;;;1.50;;
64244;SDS011;50584;29.058;-110.966;2023-11-19T09:22:27;2.65;;;1.67;;
64244;SDS011;50584;29.058;-110.966;2023-11-19T09:24:53;9.00;;;2.60;;
64244;SDS011;50584;29.058;-110.966;2023-11-19T09:27:19;9.25;;;3.20;;
64244;SDS011;50584;29.058;-110.966;2023-11-19T09:29:45;10.95;;;2.90;;
64244;SDS011;50584;29.058;-110.966;2023-11-19T09:32:14;4.32;;;2.58;;
64244;SDS011;50584;29.058;-110.966;2023-11-19T09:34:39;13.38;;;4.35;;
64244;SDS011;50584;29.058;-110.966;2023-11-19T09:37:05;9.55;;;3.35;;
64244;SDS011;50584;29.058;-110.966;2023-11-19T09:39:31;6.63;;;3.33;;
64244;SDS011;50584;29.058;-110.966;2023-11-19T09:41:57;12.07;;;3.13;;
64244;SDS011;50584;29.058;-110.966;2023-11-19T09:44:23;7.50;;;3.17;;
64244;SDS011;50584;29.058;-110.966;2023-11-19T09:46:49;9.85;;;3.20;;
64244;SDS011;50584;29.058;-110.966;2023-11-19T09:49:15;11.30;;;3.33;;
64244;SDS011;50584;29.058;-110.966;2023-11-19T09:51:45;8.82;;;3.20;;
64244;SDS011;50584;29.058;-110.966;2023-11-19T09:54:11;9.30;;;3.22;;
64244;SDS011;50584;29.058;-110.966;2023-11-19T09:56:38;5.80;;;3.08;;
64244;SDS011;50584;29.058;-110.966;2023-11-19T09:59:04;8.02;;;3.75;;
64244;SDS011;50584;29.058;-110.966;2023-11-19T10:01:30;13.52;;;3.20;;
64244;SDS011;50584;29.058;-110.966;2023-11-19T10:03:57;7.38;;;2.92;;
64244;SDS011;50584;29.058;-110.966;2023-11-19T10:06:23;5.93;;;2.33;;
64244;SDS011;50584;29.058;-110.966;2023-11-19T10:08:52;13.00;;;2.88;;
64244;SDS011;50584;29.058;-110.966;2023-11-19T10:11:18;8.43;;;2.30;;
64244;SDS011;50584;29.058;-110.966;2023-11-19T10:13:44;6.20;;;2.17;;
64244;SDS011;50584;29.058;-110.966;2023-11-19T10:16:13;2.42;;;2.30;;
64244;SDS011;50584;29.058;-110.966;2023-11-19T10:18:48;12.57;;;2.58;;
64244;SDS011;50584;29.058;-110.966;2023-11-19T10:21:18;5.32;;;2.25;;
64244;SDS011;50584;29.058;-110.966;2023-11-19T10:23:53;4.68;;;2.42;;
64244;SDS011;50584;29.058;-110.966;2023-11-19T10:26:21;2.58;;;2.38;;
64244;SDS011;50584;29.058;-110.966;2023-11-19T10:28:47;5.00;;;2.45;;
64244;SDS011;50584;29.058;-110.966;2023-11-19T10:31:13;7.93;;;2.83;;
64244;SDS011;50584;29.058;-110.966;2023-11-19T10:33:39;6.63;;;2.70;;
64244;SDS011;50584;29.058;-110.966;2023-11-19T10:36:06;9.77;;;2.65;;
64244;SDS011;50584;29.058;-110.966;2023-11-19T10:38:32;6.25;;;2.70;;
64244;SDS011;50584;29.058;-110.966;2023-11-19T10:40:57;4.90;;;2.30;;
64244;SDS011;50584;29.058;-110.966;2023-11-19T10:43:24;4.20;;;2.17;;
64244;SDS011;50584;29.058;-110.966;2023-11-19T10:45:51;2.58;;;2.35;;
64244;SDS011;50584;29.058;-110.966;2023-11-19T10:48:16;2.63;;;2.42;;
64244;SDS011;50584;29.058;-110.966;2023-11-19T10:50:43;8.77;;;3.22;;
64244;SDS011;50584;29.058;-110.966;2023-11-19T10:53:10;15.73;;;4.13;;
64244;SDS011;50584;29.058;-110.966;2023-11-19T10:55:38;13.20;;;5.25;;
64244;SDS011;50584;29.058;-110.966;2023-11-19T10:58:08;12.82;;;4.22;;
64244;SDS011;50584;29.058;-110.966;2023-11-19T11:03:05;11.40;;;4.28;;
64244;SDS011;50584;29.058;-110.966;2023-11-19T11:05:35;7.20;;;3.70;;
64244;SDS011;50584;29.058;-110.966;2023-11-19T11:08:02;9.18;;;4.22;;
64244;SDS011;50584;29.058;-110.966;2023-11-19T11:10:31;12.05;;;3.92;;
64244;SDS011;50584;29.058;-110.966;2023-11-19T11:12:59;12.65;;;4.43;;
64244;SDS011;50584;29.058;-110.966;2023-11-19T11:15:27;14.82;;;4.28;;
64244;SDS011;50584;29.058;-110.966;2023-11-19T11:17:56;15.63;;;4.63;;
64244;SDS011;50584;29.058;-110.966;2023-11-19T11:20:23;12.60;;;4.38;;
64244;SDS011;50584;29.058;-110.966;2023-11-19T11:23:10;11.27;;;4.45;;
64244;SDS011;50584;29.058;-110.966;2023-11-19T11:25:46;12.95;;;4.50;;
64244;SDS011;50584;29.058;-110.966;2023-11-19T11:36:26;8.18;;;2.20;;
64244;SDS011;50584;29.058;-110.966;2023-11-19T11:38:51;4.18;;;2.00;;
64244;SDS011;50584;29.058;-110.966;2023-11-19T11:41:19;19.73;;;2.08;;
64244;SDS011;50584;29.058;-110.966;2023-11-19T11:43:51;8.20;;;2.47;;
64244;SDS011;50584;29.058;-110.966;2023-11-19T11:49:02;9.23;;;2.38;;
64244;SDS011;50584;29.058;-110.966;2023-11-19T11:54:26;13.20;;;2.92;;
64244;SDS011;50584;29.058;-110.966;2023-11-19T11:59:47;10.52;;;3.15;;
64244;SDS011;50584;29.058;-110.966;2023-11-19T12:02:17;8.10;;;2.72;;
64244;SDS011;50584;29.058;-110.966;2023-11-19T12:04:46;4.83;;;2.50;;
64244;SDS011;50584;29.058;-110.966;2023-11-19T12:07:13;8.60;;;2.05;;
64244;SDS011;50584;29.058;-110.966;2023-11-19T12:09:42;7.13;;;2.00;;
64244;SDS011;50584;29.058;-110.966;2023-11-19T12:12:22;3.85;;;1.92;;
64244;SDS011;50584;29.058;-110.966;2023-11-19T12:15:04;5.88;;;2.25;;
64244;SDS011;50584;29.058;-110.966;2023-11-19T12:20:00;4.43;;;1.90;;
64244;SDS011;50584;29.058;-110.966;2023-11-19T12:22:27;1.90;;;1.60;;
64244;SDS011;50584;29.058;-110.966;2023-11-19T12:24:56;6.80;;;1.98;;
64244;SDS011;50584;29.058;-110.966;2023-11-19T12:27:21;4.63;;;1.95;;
64244;SDS011;50584;29.058;-110.966;2023-11-19T12:29:48;11.00;;;2.10;;
64244;SDS011;50584;29.058;-110.966;2023-11-19T12:32:14;3.85;;;2.03;;
64244;SDS011;50584;29.058;-110.966;2023-11-19T12:34:39;4.80;;;2.47;;
64244;SDS011;50584;29.058;-110.966;2023-11-19T12:37:05;12.60;;;2.30;;
64244;SDS011;50584;29.058;-110.966;2023-11-19T12:39:31;5.93;;;2.47;;
64244;SDS011;50584;29.058;-110.966;2023-11-19T12:41:57;9.68;;;2.50;;
64244;SDS011;50584;29.058;-110.966;2023-11-19T12:44:26;8.32;;;3.00;;
64244;SDS011;50584;29.058;-110.966;2023-11-19T12:47:04;8.82;;;3.33;;
64244;SDS011;50584;29.058;-110.966;2023-11-19T12:49:32;5.70;;;3.00;;
64244;SDS011;50584;29.058;-110.966;2023-11-19T12:51:57;7.40;;;3.40;;
64244;SDS011;50584;29.058;-110.966;2023-11-19T12:54:35;11.80;;;3.30;;
64244;SDS011;50584;29.058;-110.966;2023-11-19T12:57:01;9.88;;;3.17;;
64244;SDS011;50584;29.058;-110.966;2023-11-19T12:59:28;3.78;;;2.90;;
64244;SDS011;50584;29.058;-110.966;2023-11-19T13:01:54;9.23;;;3.25;;
64244;SDS011;50584;29.058;-110.966;2023-11-19T13:04:20;8.05;;;3.17;;
64244;SDS011;50584;29.058;-110.966;2023-11-19T13:06:46;9.07;;;3.45;;
64244;SDS011;50584;29.058;-110.966;2023-11-19T13:09:48;6.97;;;3.35;;
64244;SDS011;50584;29.058;-110.966;2023-11-19T13:12:13;9.55;;;3.00;;
64244;SDS011;50584;29.058;-110.966;2023-11-19T13:14:39;6.63;;;3.75;;
64244;SDS011;50584;29.058;-110.966;2023-11-19T13:17:07;7.20;;;2.95;;
64244;SDS011;50584;29.058;-110.966;2023-11-19T13:19:33;8.05;;;2.65;;
64244;SDS011;50584;29.058;-110.966;2023-11-19T13:22:00;10.55;;;2.60;;
64244;SDS011;50584;29.058;-110.966;2023-11-19T13:24:25;9.13;;;2.53;;
64244;SDS011;50584;29.058;-110.966;2023-11-19T13:26:51;6.43;;;2.88;;
64244;SDS011;50584;29.058;-110.966;2023-11-19T13:29:17;2.90;;;2.30;;
64244;SDS011;50584;29.058;-110.966;2023-11-19T13:31:43;6.65;;;2.13;;
64244;SDS011;50584;29.058;-110.966;2023-11-19T13:34:08;7.63;;;2.40;;
64244;SDS011;50584;29.058;-110.966;2023-11-19T13:36:35;3.30;;;2.20;;
64244;SDS011;50584;29.058;-110.966;2023-11-19T13:39:00;2.72;;;2.08;;
64244;SDS011;50584;29.058;-110.966;2023-11-19T13:41:26;2.47;;;2.05;;
64244;SDS011;50584;29.058;-110.966;2023-11-19T13:43:52;3.75;;;2.20;;
64244;SDS011;50584;29.058;-110.966;2023-11-19T13:46:19;3.80;;;2.30;;
64244;SDS011;50584;29.058;-110.966;2023-11-19T13:48:45;3.20;;;2.20;;
64244;SDS011;50584;29.058;-110.966;2023-11-19T13:51:11;7.15;;;2.17;;
64244;SDS011;50584;29.058;-110.966;2023-11-19T13:53:37;3.83;;;2.00;;
64244;SDS011;50584;29.058;-110.966;2023-11-19T13:56:03;7.03;;;2.50;;
64244;SDS011;50584;29.058;-110.966;2023-11-19T13:58:28;5.95;;;2.70;;
64244;SDS011;50584;29.058;-110.966;2023-11-19T14:00:54;4.95;;;2.67;;
64244;SDS011;50584;29.058;-110.966;2023-11-19T14:03:20;5.22;;;3.35;;
64244;SDS011;50584;29.058;-110.966;2023-11-19T14:05:46;12.35;;;3.20;;
64244;SDS011;50584;29.058;-110.966;2023-11-19T14:08:12;6.93;;;3.10;;
64244;SDS011;50584;29.058;-110.966;2023-11-19T14:10:38;4.47;;;2.75;;
64244;SDS011;50584;29.058;-110.966;2023-11-19T14:13:06;11.20;;;3.70;;
64244;SDS011;50584;29.058;-110.966;2023-11-19T14:15:32;8.27;;;3.00;;
64244;SDS011;50584;29.058;-110.966;2023-11-19T14:17:57;10.68;;;3.20;;
64244;SDS011;50584;29.058;-110.966;2023-11-19T14:20:23;9.80;;;3.90;;
64244;SDS011;50584;29.058;-110.966;2023-11-19T14:22:49;12.68;;;3.45;;
64244;SDS011;50584;29.058;-110.966;2023-11-19T14:25:16;24.30;;;3.90;;
64244;SDS011;50584;29.058;-110.966;2023-11-19T14:27:43;14.80;;;3.33;;